Time;durP1;ratioP1;P1;durP2;ratioP2;P2;SDS_P1;SDS_P2;PMS_P1;PMS_P2;Temp;Humidity;BMP_temperature;BMP_pressure;BME280_temperature;BME280_humidity;BME280_pressure;Samples;Min_cycle;Max_cycle;Signal;HPM_P1;HPM_P2
2021/03/05 00:01:09;;;;;;;0.70;0.70;;;8.30;99.90;;;;;;5061054;28;20239;-67
2021/03/05 00:03:35;;;;;;;0.30;0.30;;;8.20;99.90;;;;;;5073384;28;20236;-68
2021/03/05 00:06:01;;;;;;;0.30;0.30;;;8.10;99.90;;;;;;5065720;28;20673;-67
2021/03/05 00:08:26;;;;;;;0.30;0.20;;;8.00;99.90;;;;;;5053359;28;20264;-68
2021/03/05 00:10:52;;;;;;;0.30;0.30;;;7.80;99.90;;;;;;5057711;28;20422;-67
2021/03/05 00:13:20;;;;;;;0.30;0.30;;;7.70;99.90;;;;;;5072737;28;20192;-67
2021/03/05 00:15:46;;;;;;;2.10;1.10;;;7.60;99.90;;;;;;5071045;28;20435;-67
2021/03/05 00:18:12;;;;;;;0.40;0.40;;;7.50;99.90;;;;;;5073287;28;20625;-67
2021/03/05 00:20:42;;;;;;;1.63;1.52;;;7.40;99.90;;;;;;5071333;28;20207;-66
2021/03/05 00:23:08;;;;;;;0.40;0.40;;;7.30;99.90;;;;;;5057231;28;20164;-67
2021/03/05 00:25:34;;;;;;;0.30;0.30;;;7.20;99.90;;;;;;5057607;28;20197;-67
2021/03/05 00:28:00;;;;;;;2.10;2.00;;;7.10;99.90;;;;;;5055723;28;20169;-68
2021/03/05 00:30:26;;;;;;;1.43;1.33;;;7.00;99.90;;;;;;5059626;28;20169;-67
2021/03/05 00:32:52;;;;;;;0.93;0.93;;;6.90;99.90;;;;;;5076976;28;20406;-67
2021/03/05 00:35:19;;;;;;;0.40;0.40;;;6.80;99.90;;;;;;5075564;28;20193;-67
2021/03/05 00:37:45;;;;;;;0.30;0.30;;;6.80;99.90;;;;;;5076946;28;20641;-68
2021/03/05 00:40:14;;;;;;;0.30;0.30;;;6.70;99.90;;;;;;5076565;28;20296;-66
2021/03/05 00:42:42;;;;;;;0.50;0.50;;;6.60;99.90;;;;;;5076927;28;20157;-67
2021/03/05 00:45:09;;;;;;;0.82;0.82;;;6.50;99.90;;;;;;5076264;28;20594;-68
2021/03/05 00:47:35;;;;;;;3.42;0.85;;;6.50;99.90;;;;;;5056960;28;20180;-66
2021/03/05 00:50:02;;;;;;;1.73;1.73;;;6.50;99.90;;;;;;5056664;28;20170;-67
2021/03/05 00:52:28;;;;;;;0.35;0.35;;;6.50;99.90;;;;;;5060992;28;20423;-66
2021/03/05 00:54:53;;;;;;;0.40;0.40;;;6.50;99.90;;;;;;5056392;28;20668;-68
2021/03/05 00:57:19;;;;;;;0.30;0.30;;;6.40;99.90;;;;;;5072696;28;20644;-67
2021/03/05 00:59:45;;;;;;;0.70;0.70;;;6.40;99.90;;;;;;5076117;28;20195;-67
2021/03/05 01:02:10;;;;;;;0.30;0.30;;;6.40;99.90;;;;;;5059746;28;20417;-67
2021/03/05 01:04:36;;;;;;;0.30;0.30;;;6.40;99.90;;;;;;5055707;28;20173;-68
2021/03/05 01:07:02;;;;;;;0.90;0.77;;;6.30;99.90;;;;;;5072351;28;20203;-68
2021/03/05 01:09:27;;;;;;;0.40;0.40;;;6.30;99.90;;;;;;5076503;28;20165;-68
2021/03/05 01:11:53;;;;;;;0.80;0.80;;;6.20;99.90;;;;;;5060044;28;20234;-67
2021/03/05 01:14:18;;;;;;;0.60;0.60;;;6.10;99.90;;;;;;5067964;28;20257;-67
2021/03/05 01:16:44;;;;;;;0.60;0.60;;;6.00;99.90;;;;;;5074272;28;20196;-67
2021/03/05 01:19:13;;;;;;;0.30;0.30;;;5.90;99.90;;;;;;5075952;28;20176;-66
2021/03/05 01:21:40;;;;;;;0.30;0.30;;;5.80;99.90;;;;;;5075181;28;20197;-68
2021/03/05 01:24:06;;;;;;;1.17;1.17;;;5.70;99.90;;;;;;5075602;28;20633;-67
2021/03/05 01:26:32;;;;;;;0.40;0.40;;;5.70;99.90;;;;;;5065227;28;20284;-67
2021/03/05 01:28:58;;;;;;;0.30;0.30;;;5.60;99.90;;;;;;5067334;28;20260;-67
2021/03/05 01:31:24;;;;;;;0.30;0.30;;;5.50;99.90;;;;;;5064661;28;20792;-66
2021/03/05 01:33:49;;;;;;;0.30;0.30;;;5.40;99.90;;;;;;5055479;28;20692;-67
2021/03/05 01:36:15;;;;;;;0.30;0.30;;;5.40;99.90;;;;;;5063413;28;20196;-68
2021/03/05 01:38:40;;;;;;;0.30;0.30;;;5.30;99.90;;;;;;5075960;28;20640;-68
2021/03/05 01:41:06;;;;;;;0.40;0.40;;;5.30;99.90;;;;;;5068517;28;20665;-66
2021/03/05 01:43:34;;;;;;;0.50;0.50;;;5.30;99.90;;;;;;5056905;28;20173;-67
2021/03/05 01:46:00;;;;;;;0.30;0.30;;;5.30;99.90;;;;;;5060562;28;20439;-68
2021/03/05 01:48:27;;;;;;;0.30;0.30;;;5.30;99.90;;;;;;5074283;28;20180;-67
2021/03/05 01:50:59;;;;;;;0.40;0.40;;;5.20;99.90;;;;;;5074396;28;20568;-66
2021/03/05 01:53:27;;;;;;;0.40;0.40;;;5.20;99.90;;;;;;5055685;28;20227;-68
2021/03/05 01:55:53;;;;;;;0.30;0.30;;;5.20;99.90;;;;;;5056321;28;20250;-66
2021/03/05 01:58:30;;;;;;;0.30;0.30;;;5.20;99.90;;;;;;5075283;28;20267;-68
2021/03/05 02:01:01;;;;;;;0.30;0.30;;;5.20;99.90;;;;;;5070965;28;20455;-67
2021/03/05 02:03:30;;;;;;;2.25;1.90;;;5.10;99.90;;;;;;5055493;28;20169;-68
2021/03/05 02:05:56;;;;;;;0.35;0.35;;;5.20;99.90;;;;;;5058160;28;20192;-67
2021/03/05 02:08:22;;;;;;;0.60;0.60;;;5.10;99.90;;;;;;5075396;28;20176;-67
2021/03/05 02:10:48;;;;;;;0.40;0.40;;;5.10;99.90;;;;;;5073846;28;20427;-67
2021/03/05 02:13:14;;;;;;;2.83;1.27;;;5.10;99.90;;;;;;5055321;28;20204;-67
2021/03/05 02:15:41;;;;;;;0.30;0.30;;;5.10;99.90;;;;;;5055413;28;20439;-68
2021/03/05 02:18:06;;;;;;;0.65;0.65;;;5.10;99.90;;;;;;5056054;28;20614;-67
2021/03/05 02:21:05;;;;;;;0.30;0.30;;;5.10;99.90;;;;;;5054875;28;20196;-68
2021/03/05 02:23:49;;;;;;;0.30;0.30;;;5.10;99.90;;;;;;5055135;28;20262;-68
2021/03/05 02:26:30;;;;;;;0.35;0.35;;;5.10;99.90;;;;;;5073090;28;20192;-68
2021/03/05 02:29:21;;;;;;;0.70;0.70;;;5.20;99.90;;;;;;5074940;28;20629;-68
2021/03/05 02:31:55;;;;;;;0.30;0.30;;;5.20;99.90;;;;;;5073909;28;20545;-66
2021/03/05 02:34:28;;;;;;;0.30;0.30;;;5.20;99.90;;;;;;5071385;28;20185;-67
2021/03/05 02:37:09;;;;;;;0.30;0.30;;;5.10;99.90;;;;;;5069211;28;20219;-68
2021/03/05 02:40:03;;;;;;;0.30;0.30;;;5.10;99.90;;;;;;5074744;28;20196;-68
2021/03/05 02:42:43;;;;;;;0.30;0.30;;;5.10;99.90;;;;;;5054970;28;20177;-68
2021/03/05 02:45:13;;;;;;;0.60;0.60;;;5.10;99.90;;;;;;5054726;28;20235;-68
2021/03/05 02:47:43;;;;;;;0.30;0.30;;;5.00;99.90;;;;;;5074522;28;20161;-67
2021/03/05 02:50:11;;;;;;;0.30;0.30;;;5.00;99.90;;;;;;5074371;28;20168;-68
2021/03/05 02:52:39;;;;;;;2.47;2.22;;;5.00;99.90;;;;;;5054775;28;20165;-68
2021/03/05 02:55:07;;;;;;;0.50;0.50;;;5.00;99.90;;;;;;5073814;28;20542;-68
2021/03/05 02:57:37;;;;;;;1.67;1.15;;;5.00;99.90;;;;;;5055029;28;20193;-68
2021/03/05 03:00:05;;;;;;;0.30;0.30;;;5.00;99.90;;;;;;5062092;28;20173;-67
2021/03/05 03:02:33;;;;;;;0.30;0.30;;;5.00;99.90;;;;;;5062692;28;20654;-67
2021/03/05 03:05:00;;;;;;;0.40;0.40;;;5.00;99.90;;;;;;5060517;28;20196;-67
2021/03/05 03:07:27;;;;;;;0.30;0.30;;;5.00;99.90;;;;;;5074158;28;20169;-67
2021/03/05 03:09:52;;;;;;;1.20;1.20;;;5.00;99.90;;;;;;5068127;28;20196;-67
2021/03/05 03:12:19;;;;;;;3.13;1.00;;;5.00;99.90;;;;;;5067582;28;20565;-67
2021/03/05 03:14:47;;;;;;;2.63;1.55;;;5.00;99.90;;;;;;5068556;28;20936;-68
2021/03/05 03:17:14;;;;;;;0.45;0.45;;;4.90;99.90;;;;;;5074028;28;20176;-68
2021/03/05 03:19:46;;;;;;;0.50;0.50;;;4.90;99.90;;;;;;5072013;28;20190;-67
2021/03/05 03:22:11;;;;;;;0.98;0.98;;;4.90;99.90;;;;;;5073857;28;20169;-67
2021/03/05 03:24:37;;;;;;;0.30;0.30;;;5.00;99.90;;;;;;5067657;28;20177;-68
2021/03/05 03:27:03;;;;;;;0.40;0.40;;;4.90;99.90;;;;;;5054099;28;20423;-67
2021/03/05 03:29:29;;;;;;;0.30;0.30;;;4.90;99.90;;;;;;5054433;28;20775;-67
2021/03/05 03:31:55;;;;;;;0.35;0.35;;;4.90;99.90;;;;;;5053656;28;20456;-67
2021/03/05 03:34:21;;;;;;;0.30;0.30;;;4.90;99.90;;;;;;5063656;28;20514;-68
2021/03/05 03:36:48;;;;;;;1.20;1.20;;;4.90;99.90;;;;;;5073668;28;20675;-68
2021/03/05 03:39:14;;;;;;;0.40;0.40;;;4.90;99.90;;;;;;5069929;28;20616;-68
2021/03/05 03:41:40;;;;;;;0.57;0.57;;;4.90;99.90;;;;;;5073216;28;20185;-68
2021/03/05 03:44:08;;;;;;;0.30;0.30;;;4.90;99.90;;;;;;5065323;28;20188;-67
2021/03/05 03:46:36;;;;;;;0.43;0.43;;;4.90;99.90;;;;;;5053530;28;20838;-67
2021/03/05 03:49:06;;;;;;;0.68;0.68;;;4.90;99.90;;;;;;5056519;28;20188;-69
2021/03/05 03:51:38;;;;;;;0.30;0.30;;;4.90;99.90;;;;;;5058951;28;20200;-68
2021/03/05 03:54:05;;;;;;;0.30;0.30;;;4.90;99.90;;;;;;5072273;28;20181;-67
2021/03/05 03:56:34;;;;;;;0.40;0.40;;;4.90;99.90;;;;;;5072405;28;20219;-67
2021/03/05 03:59:02;;;;;;;0.40;0.40;;;4.90;99.90;;;;;;5068051;28;20161;-68
2021/03/05 04:01:31;;;;;;;0.30;0.30;;;4.90;99.90;;;;;;5057366;28;20173;-67
2021/03/05 04:04:00;;;;;;;0.30;0.30;;;4.90;99.90;;;;;;5068564;28;20173;-67
2021/03/05 04:06:27;;;;;;;0.45;0.45;;;4.90;99.90;;;;;;5053215;28;20592;-67
2021/03/05 04:08:56;;;;;;;0.40;0.40;;;4.90;99.90;;;;;;5056247;28;20185;-67
2021/03/05 04:11:23;;;;;;;0.50;0.50;;;4.90;99.90;;;;;;5070769;28;20213;-67
2021/03/05 04:13:48;;;;;;;0.43;0.43;;;4.90;99.90;;;;;;5055585;28;20173;-68
2021/03/05 04:16:14;;;;;;;0.50;0.50;;;4.90;99.90;;;;;;5073057;28;20188;-66
2021/03/05 04:18:41;;;;;;;0.30;0.30;;;4.90;99.90;;;;;;5071668;28;20400;-67
2021/03/05 04:21:13;;;;;;;0.50;0.50;;;4.80;99.90;;;;;;5065722;28;20589;-67
2021/03/05 04:23:39;;;;;;;1.52;0.80;;;4.80;99.90;;;;;;5071441;28;20184;-68
2021/03/05 04:26:05;;;;;;;0.40;0.40;;;4.80;99.90;;;;;;5052522;28;20193;-68
2021/03/05 04:28:31;;;;;;;0.30;0.30;;;4.70;99.90;;;;;;5052965;28;20211;-67
2021/03/05 04:30:56;;;;;;;0.87;0.87;;;4.80;99.90;;;;;;5060924;28;20267;-67
2021/03/05 04:33:22;;;;;;;0.40;0.40;;;4.80;99.90;;;;;;5053122;28;20192;-66
2021/03/05 04:35:48;;;;;;;0.40;0.40;;;4.80;99.90;;;;;;5071291;28;20203;-66
2021/03/05 04:38:14;;;;;;;0.40;0.40;;;4.80;99.90;;;;;;5070939;28;20169;-67
2021/03/05 04:40:39;;;;;;;0.30;0.30;;;4.80;99.90;;;;;;5060113;28;20234;-68
2021/03/05 04:43:05;;;;;;;0.30;0.30;;;4.80;99.90;;;;;;5052932;28;20246;-68
2021/03/05 04:45:30;;;;;;;2.73;2.60;;;4.70;99.90;;;;;;5068617;28;20421;-67
2021/03/05 04:47:56;;;;;;;0.30;0.30;;;4.70;99.90;;;;;;5072774;28;20173;-68
2021/03/05 04:50:22;;;;;;;0.30;0.30;;;4.70;99.90;;;;;;5068043;28;20212;-70
2021/03/05 04:52:47;;;;;;;0.30;0.30;;;4.70;99.90;;;;;;5056599;28;20173;-67
2021/03/05 04:55:13;;;;;;;0.30;0.30;;;4.70;99.90;;;;;;5064772;28;20200;-68
2021/03/05 04:57:39;;;;;;;0.50;0.50;;;4.70;99.90;;;;;;5072970;28;20268;-68
2021/03/05 05:00:05;;;;;;;0.30;0.30;;;4.70;99.90;;;;;;5059051;28;20176;-68
2021/03/05 05:02:31;;;;;;;0.40;0.40;;;4.70;99.90;;;;;;5072829;28;20180;-67
2021/03/05 05:04:57;;;;;;;0.43;0.43;;;4.70;99.90;;;;;;5054836;28;20197;-67
2021/03/05 05:07:22;;;;;;;0.30;0.30;;;4.70;99.90;;;;;;5055381;28;20638;-68
2021/03/05 05:09:48;;;;;;;0.37;0.37;;;4.70;99.90;;;;;;5059473;28;20215;-67
2021/03/05 05:12:14;;;;;;;0.38;0.38;;;4.70;99.90;;;;;;5076155;28;20224;-66
2021/03/05 05:14:40;;;;;;;0.33;0.33;;;4.70;99.90;;;;;;5061153;28;20503;-69
2021/03/05 05:17:05;;;;;;;0.40;0.40;;;4.70;99.90;;;;;;5056158;28;20251;-66
2021/03/05 05:19:31;;;;;;;0.30;0.30;;;4.70;99.90;;;;;;5057515;28;20174;-69
2021/03/05 05:21:57;;;;;;;0.40;0.40;;;4.70;99.90;;;;;;5056315;28;20231;-69
2021/03/05 05:24:22;;;;;;;0.30;0.30;;;4.70;99.90;;;;;;5067090;28;20177;-69
2021/03/05 05:26:48;;;;;;;0.40;0.40;;;4.60;99.90;;;;;;5074744;28;20445;-68
2021/03/05 05:29:14;;;;;;;0.40;0.40;;;4.60;99.90;;;;;;5073444;28;20177;-69
2021/03/05 05:31:39;;;;;;;0.30;0.30;;;4.60;99.90;;;;;;5076162;28;20283;-69
2021/03/05 05:34:05;;;;;;;0.30;0.30;;;4.60;99.90;;;;;;5066266;28;20173;-68
2021/03/05 05:36:30;;;;;;;0.60;0.60;;;4.60;99.90;;;;;;5055971;28;20267;-67
2021/03/05 05:38:56;;;;;;;0.40;0.40;;;4.60;99.90;;;;;;5056984;28;20175;-68
2021/03/05 05:41:24;;;;;;;0.30;0.30;;;4.60;99.90;;;;;;5055951;28;20179;-67
2021/03/05 05:43:50;;;;;;;0.40;0.40;;;4.50;99.90;;;;;;5061620;28;20184;-66
2021/03/05 05:46:17;;;;;;;0.30;0.30;;;4.50;99.90;;;;;;5075745;28;20193;-70
2021/03/05 05:48:46;;;;;;;1.40;1.40;;;4.50;99.90;;;;;;5073417;28;20179;-67
2021/03/05 05:51:17;;;;;;;0.38;0.38;;;4.50;99.90;;;;;;5075568;28;20188;-70
2021/03/05 05:53:45;;;;;;;0.47;0.47;;;4.50;99.90;;;;;;5073676;28;20164;-69
2021/03/05 05:56:15;;;;;;;0.30;0.30;;;4.50;99.90;;;;;;5073820;28;20288;-68
2021/03/05 05:58:41;;;;;;;0.40;0.40;;;4.50;99.90;;;;;;5068881;28;20169;-68
2021/03/05 06:01:07;;;;;;;0.40;0.40;;;4.50;99.90;;;;;;5054264;28;20165;-69
2021/03/05 06:03:34;;;;;;;0.30;0.30;;;4.50;99.90;;;;;;5059982;28;20173;-70
2021/03/05 06:06:00;;;;;;;0.30;0.30;;;4.50;99.90;;;;;;5074748;28;20210;-67
2021/03/05 06:08:28;;;;;;;0.30;0.30;;;4.50;99.90;;;;;;5058534;28;20172;-68
2021/03/05 06:10:54;;;;;;;0.30;0.30;;;4.50;99.90;;;;;;5075299;28;20203;-67
2021/03/05 06:13:20;;;;;;;0.40;0.40;;;4.50;99.90;;;;;;5072611;28;20854;-68
2021/03/05 06:16:12;;;;;;;0.30;0.30;;;4.50;99.90;;;;;;5065185;28;20439;-68
2021/03/05 06:18:38;;;;;;;0.40;0.40;;;4.50;99.90;;;;;;5069957;28;20244;-68
2021/03/05 06:21:04;;;;;;;0.30;0.30;;;4.50;99.90;;;;;;5055006;28;20261;-69
2021/03/05 06:23:30;;;;;;;0.30;0.30;;;4.50;99.90;;;;;;5061167;28;20424;-69
2021/03/05 06:25:59;;;;;;;0.30;0.30;;;4.50;99.90;;;;;;5054590;28;20439;-68
2021/03/05 06:28:26;;;;;;;0.82;0.82;;;4.50;99.90;;;;;;5056845;28;20584;-68
2021/03/05 06:30:51;;;;;;;0.40;0.40;;;4.50;99.90;;;;;;5074734;28;20536;-68
2021/03/05 06:33:22;;;;;;;0.30;0.30;;;4.50;99.90;;;;;;5065609;28;20176;-68
2021/03/05 06:35:49;;;;;;;0.30;0.30;;;4.40;99.90;;;;;;5074308;28;20208;-68
2021/03/05 06:38:37;;;;;;;0.40;0.40;;;4.40;99.90;;;;;;5074428;28;20211;-69
2021/03/05 06:41:30;;;;;;;0.30;0.30;;;4.40;99.90;;;;;;5054689;28;20541;-67
2021/03/05 06:44:03;;;;;;;0.40;0.40;;;4.40;99.90;;;;;;5061125;28;20193;-68
2021/03/05 06:46:40;;;;;;;1.88;1.77;;;4.40;99.90;;;;;;5054388;28;20204;-70
2021/03/05 06:49:07;;;;;;;0.32;0.32;;;4.30;99.90;;;;;;5060126;28;20188;-68
2021/03/05 06:51:34;;;;;;;0.65;0.65;;;4.30;99.90;;;;;;5074378;28;20586;-68
2021/03/05 06:54:03;;;;;;;0.60;0.60;;;4.30;99.90;;;;;;5065184;28;20183;-69
2021/03/05 06:56:31;;;;;;;0.30;0.30;;;4.30;99.90;;;;;;5074289;28;20204;-67
2021/03/05 06:58:57;;;;;;;0.30;0.30;;;4.30;99.90;;;;;;5057992;28;20177;-67
2021/03/05 07:01:23;;;;;;;0.40;0.40;;;4.30;99.90;;;;;;5065496;28;20180;-71
2021/03/05 07:04:07;;;;;;;3.20;2.90;;;4.30;99.90;;;;;;5059080;28;20170;-68
2021/03/05 07:06:32;;;;;;;0.30;0.30;;;4.30;99.90;;;;;;5059641;28;20196;-68
2021/03/05 07:08:58;;;;;;;0.40;0.40;;;4.30;99.90;;;;;;5058703;28;20264;-68
2021/03/05 07:11:39;;;;;;;0.40;0.40;;;4.30;99.90;;;;;;5054098;28;20212;-68
2021/03/05 07:14:06;;;;;;;0.40;0.40;;;4.30;99.90;;;;;;5063205;28;20198;-70
2021/03/05 07:16:39;;;;;;;0.30;0.30;;;4.30;99.90;;;;;;5069269;28;20626;-67
2021/03/05 07:19:05;;;;;;;0.30;0.30;;;4.30;99.90;;;;;;5064558;28;20173;-69
2021/03/05 07:21:33;;;;;;;0.30;0.30;;;4.30;99.90;;;;;;5056204;28;20530;-69
2021/03/05 07:24:03;;;;;;;0.40;0.40;;;4.30;99.90;;;;;;5053091;28;20174;-68
2021/03/05 07:26:31;;;;;;;0.30;0.30;;;4.30;99.90;;;;;;5069436;28;20232;-70
2021/03/05 07:28:57;;;;;;;0.30;0.30;;;4.30;99.90;;;;;;5073672;28;20169;-67
2021/03/05 07:31:24;;;;;;;0.30;0.30;;;4.30;99.90;;;;;;5072352;28;20552;-66
2021/03/05 07:33:53;;;;;;;0.30;0.30;;;4.30;99.90;;;;;;5073328;28;20173;-68
2021/03/05 07:36:20;;;;;;;0.30;0.30;;;4.30;99.90;;;;;;5058996;28;20201;-68
2021/03/05 07:38:51;;;;;;;0.30;0.30;;;4.30;99.90;;;;;;5053431;28;20166;-68
2021/03/05 07:41:20;;;;;;;0.30;0.30;;;4.40;99.90;;;;;;5053440;28;20169;-69
2021/03/05 07:43:46;;;;;;;0.40;0.40;;;4.40;99.90;;;;;;5053199;28;20560;-68
2021/03/05 07:46:15;;;;;;;0.50;0.50;;;4.40;99.90;;;;;;5053596;28;20196;-68
2021/03/05 07:48:41;;;;;;;0.30;0.30;;;4.40;99.90;;;;;;5064574;28;20415;-68
2021/03/05 07:51:08;;;;;;;0.30;0.30;;;4.40;99.90;;;;;;5073420;28;20211;-69
2021/03/05 07:53:50;;;;;;;0.40;0.40;;;4.40;99.90;;;;;;5067761;28;20575;-68
2021/03/05 07:56:41;;;;;;;0.30;0.30;;;4.50;99.90;;;;;;5054992;28;20692;-68
2021/03/05 07:59:07;;;;;;;0.32;0.32;;;4.50;99.90;;;;;;5073416;28;20200;-69
2021/03/05 08:01:51;;;;;;;0.30;0.30;;;4.60;99.90;;;;;;5071972;28;20606;-67
2021/03/05 08:04:17;;;;;;;0.90;0.90;;;4.60;99.90;;;;;;5072890;28;20410;-65
2021/03/05 08:06:44;;;;;;;0.30;0.30;;;4.60;99.90;;;;;;5066610;28;20205;-68
2021/03/05 08:09:17;;;;;;;1.50;0.77;;;4.70;99.90;;;;;;5070019;28;20184;-69
2021/03/05 08:11:43;;;;;;;1.08;0.82;;;4.70;99.90;;;;;;5072978;28;21361;-67
2021/03/05 08:14:24;;;;;;;0.30;0.30;;;4.90;99.90;;;;;;5071416;28;20172;-67
2021/03/05 08:16:51;;;;;;;0.30;0.30;;;4.90;99.90;;;;;;5072024;28;20698;-70
2021/03/05 08:19:16;;;;;;;0.30;0.30;;;4.90;99.90;;;;;;5073269;28;20165;-68
2021/03/05 08:21:51;;;;;;;1.23;1.23;;;4.90;99.90;;;;;;5072964;28;20227;-70
2021/03/05 08:24:30;;;;;;;0.40;0.40;;;4.80;99.90;;;;;;5072515;28;20168;-69
2021/03/05 08:27:16;;;;;;;0.30;0.30;;;4.80;99.90;;;;;;5053030;28;20557;-70
2021/03/05 08:30:05;;;;;;;0.93;0.93;;;4.80;99.90;;;;;;5053129;28;20205;-70
2021/03/05 08:32:33;;;;;;;0.30;0.30;;;4.90;99.90;;;;;;5052773;28;20165;-71
2021/03/05 08:35:00;;;;;;;0.30;0.30;;;5.00;99.90;;;;;;5057514;28;20653;-69
2021/03/05 08:37:37;;;;;;;1.05;1.05;;;5.00;99.90;;;;;;5071563;28;20196;-68
2021/03/05 08:40:12;;;;;;;0.30;0.30;;;5.10;99.90;;;;;;5052937;28;20176;-69
2021/03/05 08:42:42;;;;;;;0.30;0.30;;;5.10;99.90;;;;;;5055896;28;20175;-67
2021/03/05 08:45:17;;;;;;;0.70;0.70;;;5.10;99.90;;;;;;5057335;28;20189;-64
2021/03/05 08:47:49;;;;;;;0.30;0.30;;;5.20;99.90;;;;;;5065278;28;20203;-68
2021/03/05 08:50:17;;;;;;;0.30;0.30;;;5.20;99.90;;;;;;5076564;28;20164;-68
2021/03/05 08:52:45;;;;;;;0.30;0.30;;;5.20;99.90;;;;;;5076177;28;20177;-68
2021/03/05 08:55:12;;;;;;;0.30;0.30;;;5.20;99.90;;;;;;5076123;28;20215;-71
2021/03/05 08:57:45;;;;;;;0.30;0.30;;;5.20;99.90;;;;;;5076616;28;20164;-69
2021/03/05 09:00:16;;;;;;;0.63;0.63;;;5.20;99.90;;;;;;5076556;28;20256;-69
2021/03/05 09:02:43;;;;;;;0.30;0.30;;;5.30;99.90;;;;;;5062043;28;20184;-66
2021/03/05 09:05:12;;;;;;;0.40;0.40;;;5.30;99.90;;;;;;5061998;28;20189;-66
2021/03/05 09:07:49;;;;;;;0.52;0.52;;;5.30;99.90;;;;;;5076365;28;20247;-67
2021/03/05 09:10:16;;;;;;;0.30;0.30;;;5.30;99.90;;;;;;5076206;28;20175;-67
2021/03/05 09:12:59;;;;;;;0.40;0.40;;;5.30;99.90;;;;;;5075575;28;20173;-66
2021/03/05 09:15:30;;;;;;;0.30;0.30;;;5.30;99.90;;;;;;5076039;28;20609;-67
2021/03/05 09:17:57;;;;;;;0.30;0.30;;;5.30;99.90;;;;;;5076373;28;20184;-69
2021/03/05 09:20:23;;;;;;;0.40;0.40;;;5.30;99.90;;;;;;5067669;28;20188;-71
2021/03/05 09:22:49;;;;;;;0.30;0.30;;;5.30;99.90;;;;;;5056146;28;20174;-71
2021/03/05 09:25:14;;;;;;;0.40;0.40;;;5.30;99.90;;;;;;5055652;28;20235;-70
2021/03/05 09:27:43;;;;;;;0.30;0.30;;;5.40;99.90;;;;;;5056137;28;20176;-74
2021/03/05 09:30:25;;;;;;;0.30;0.30;;;5.30;99.90;;;;;;5061458;28;20783;-69
2021/03/05 09:32:52;;;;;;;0.40;0.40;;;5.30;99.90;;;;;;5075848;28;20172;-70
2021/03/05 09:35:26;;;;;;;2.13;1.98;;;5.30;99.90;;;;;;5075489;28;20216;-73
2021/03/05 09:37:52;;;;;;;1.48;1.48;;;5.40;99.90;;;;;;5076141;28;20191;-66
2021/03/05 09:40:19;;;;;;;0.30;0.30;;;5.40;99.90;;;;;;5065957;28;20174;-68
2021/03/05 09:42:50;;;;;;;0.30;0.30;;;5.40;99.90;;;;;;5055721;28;20173;-69
2021/03/05 09:45:34;;;;;;;0.40;0.40;;;5.50;99.90;;;;;;5055205;28;20211;-67
2021/03/05 09:48:02;;;;;;;0.30;0.30;;;5.50;99.90;;;;;;5056156;28;20180;-66
2021/03/05 09:50:28;;;;;;;0.30;0.30;;;5.50;99.90;;;;;;5064607;28;20246;-68
2021/03/05 09:52:54;;;;;;;0.40;0.40;;;5.50;99.90;;;;;;5074323;28;20199;-67
2021/03/05 09:55:29;;;;;;;0.30;0.30;;;5.60;99.90;;;;;;5075125;28;20224;-65
2021/03/05 09:58:08;;;;;;;0.30;0.30;;;5.70;99.90;;;;;;5058446;28;20176;-68
2021/03/05 10:00:35;;;;;;;0.30;0.30;;;5.70;99.90;;;;;;5055434;28;20181;-68
2021/03/05 10:03:09;;;;;;;0.63;0.63;;;5.80;99.90;;;;;;5055278;28;20170;-68
2021/03/05 10:05:40;;;;;;;0.30;0.30;;;5.90;99.90;;;;;;5054878;28;20191;-66
2021/03/05 10:08:35;;;;;;;0.32;0.32;;;6.00;99.90;;;;;;5072325;28;20172;-66
2021/03/05 10:11:07;;;;;;;0.30;0.30;;;6.10;99.90;;;;;;5066078;28;20209;-67
2021/03/05 10:13:56;;;;;;;0.70;0.70;;;6.30;99.90;;;;;;5075245;28;20165;-65
2021/03/05 10:16:40;;;;;;;0.30;0.30;;;6.30;99.90;;;;;;5074248;28;20232;-65
2021/03/05 10:19:11;;;;;;;0.30;0.30;;;6.30;99.90;;;;;;5075065;28;20174;-67
2021/03/05 10:21:49;;;;;;;0.30;0.30;;;6.40;99.90;;;;;;5075200;28;20197;-67
2021/03/05 10:24:16;;;;;;;0.30;0.30;;;6.40;99.90;;;;;;5074745;28;20165;-68
2021/03/05 10:29:48;;;;;;;0.30;0.30;;;6.40;99.90;;;;;;5055162;28;20178;-66
2021/03/05 10:32:20;;;;;;;1.00;0.95;;;6.40;99.90;;;;;;5054865;28;20202;-64
2021/03/05 10:34:47;;;;;;;0.30;0.30;;;6.40;99.90;;;;;;5057325;28;20174;-66
2021/03/05 10:37:13;;;;;;;1.60;1.50;;;6.40;99.90;;;;;;5060073;28;20172;-68
2021/03/05 10:39:41;;;;;;;0.30;0.30;;;6.50;99.90;;;;;;5057746;28;20170;-67
2021/03/05 10:42:13;;;;;;;0.38;0.38;;;6.60;99.90;;;;;;5053242;28;20236;-65
2021/03/05 10:44:40;;;;;;;0.30;0.30;;;6.70;99.90;;;;;;5054313;28;20186;-69
2021/03/05 10:47:08;;;;;;;2.50;1.45;;;6.80;99.90;;;;;;5054445;28;20174;-68
2021/03/05 10:49:34;;;;;;;1.58;1.48;;;6.90;99.90;;;;;;5054380;28;20176;-66
2021/03/05 10:52:00;;;;;;;0.30;0.30;;;6.90;99.90;;;;;;5054301;28;20191;-69
2021/03/05 10:54:26;;;;;;;13.40;1.50;;;6.90;99.90;;;;;;5053981;28;20169;-68
2021/03/05 10:56:53;;;;;;;0.30;0.30;;;6.90;99.90;;;;;;5054233;28;20211;-70
2021/03/05 10:59:20;;;;;;;0.30;0.30;;;6.80;99.90;;;;;;5054259;28;20692;-70
2021/03/05 11:01:47;;;;;;;0.55;0.55;;;6.90;99.90;;;;;;5053099;28;20299;-69
2021/03/05 11:04:15;;;;;;;0.30;0.30;;;6.80;99.90;;;;;;5063493;28;20181;-70
2021/03/05 11:06:42;;;;;;;0.40;0.40;;;6.70;99.90;;;;;;5072644;28;20197;-68
2021/03/05 11:09:08;;;;;;;1.10;1.10;;;6.80;99.90;;;;;;5073892;28;20174;-68
2021/03/05 11:11:34;;;;;;;0.30;0.30;;;6.80;99.90;;;;;;5073585;28;20193;-68
2021/03/05 11:14:00;;;;;;;2.13;1.10;;;6.80;99.90;;;;;;5064956;28;20705;-69
2021/03/05 11:16:26;;;;;;;0.30;0.30;;;6.80;99.90;;;;;;5053916;28;20226;-69
2021/03/05 11:18:52;;;;;;;0.30;0.30;;;6.80;99.90;;;;;;5053714;28;20169;-68
2021/03/05 11:21:22;;;;;;;0.30;0.30;;;6.90;99.90;;;;;;5053841;28;20176;-69
2021/03/05 11:23:49;;;;;;;0.30;0.30;;;6.90;99.90;;;;;;5060966;28;20938;-67
2021/03/05 11:26:15;;;;;;;0.30;0.30;;;6.90;99.90;;;;;;5062030;28;20196;-70
2021/03/05 11:28:41;;;;;;;0.30;0.30;;;6.90;99.90;;;;;;5062553;28;20726;-70
2021/03/05 11:31:07;;;;;;;0.73;0.68;;;6.90;99.90;;;;;;5063057;28;20277;-67
2021/03/05 11:33:33;;;;;;;0.80;0.80;;;6.80;99.90;;;;;;5061089;28;20249;-69
2021/03/05 11:35:58;;;;;;;0.40;0.40;;;6.70;99.90;;;;;;5061298;28;20547;-69
2021/03/05 11:38:24;;;;;;;0.50;0.50;;;6.70;99.90;;;;;;5061809;28;20651;-69
2021/03/05 11:40:50;;;;;;;0.30;0.30;;;6.70;99.90;;;;;;5062227;28;20197;-67
2021/03/05 11:43:16;;;;;;;0.40;0.40;;;6.70;99.90;;;;;;5064018;28;20764;-66
2021/03/05 11:45:41;;;;;;;0.30;0.30;;;6.70;99.90;;;;;;5060532;28;20435;-68
2021/03/05 11:48:08;;;;;;;0.60;0.60;;;6.60;99.90;;;;;;5061357;28;20635;-67
2021/03/05 11:50:33;;;;;;;0.38;0.38;;;6.70;99.90;;;;;;5063788;28;20241;-68
2021/03/05 11:52:59;;;;;;;0.30;0.30;;;6.80;99.90;;;;;;5061027;28;20201;-68
2021/03/05 11:55:25;;;;;;;0.30;0.30;;;6.80;99.90;;;;;;5068041;28;20700;-67
2021/03/05 11:57:51;;;;;;;0.30;0.30;;;6.80;99.90;;;;;;5073523;28;20177;-69
2021/03/05 12:00:17;;;;;;;0.30;0.30;;;6.70;99.90;;;;;;5073353;28;20211;-68
2021/03/05 12:02:42;;;;;;;3.22;2.63;;;6.80;99.90;;;;;;5072308;28;20508;-67
2021/03/05 12:05:09;;;;;;;0.30;0.30;;;6.80;99.90;;;;;;5072817;28;20276;-68
2021/03/05 12:07:34;;;;;;;0.30;0.30;;;6.80;99.90;;;;;;5073436;28;20587;-68
2021/03/05 12:10:00;;;;;;;0.30;0.30;;;6.80;99.90;;;;;;5073233;28;20307;-67
2021/03/05 12:12:26;;;;;;;0.30;0.30;;;6.80;99.90;;;;;;5060578;28;20205;-69
2021/03/05 12:14:52;;;;;;;0.50;0.50;;;6.80;99.90;;;;;;5052690;28;20165;-67
2021/03/05 12:17:18;;;;;;;2.10;0.90;;;6.90;99.90;;;;;;5052310;28;20167;-73
2021/03/05 12:19:43;;;;;;;0.50;0.50;;;7.00;99.90;;;;;;5055510;28;20275;-72
2021/03/05 12:22:10;;;;;;;1.53;1.43;;;7.00;99.90;;;;;;5073039;28;20195;-72
2021/03/05 12:24:35;;;;;;;0.30;0.30;;;7.00;99.90;;;;;;5071621;28;20168;-70
2021/03/05 12:27:07;;;;;;;0.40;0.37;;;7.00;99.90;;;;;;5073132;28;20730;-77
2021/03/05 12:29:32;;;;;;;0.30;0.30;;;7.00;99.90;;;;;;5072509;28;20437;-73
2021/03/05 12:31:59;;;;;;;0.30;0.30;;;6.90;99.90;;;;;;5053011;28;20197;-76
2021/03/05 12:34:25;;;;;;;0.30;0.30;;;7.00;99.90;;;;;;5053318;28;20267;-68
2021/03/05 12:36:51;;;;;;;0.50;0.50;;;7.10;99.90;;;;;;5053349;28;20700;-72
2021/03/05 12:39:17;;;;;;;1.53;1.43;;;7.10;99.90;;;;;;5052977;28;20160;-73
2021/03/05 12:41:43;;;;;;;1.58;1.02;;;7.10;99.90;;;;;;5070138;28;20429;-72
2021/03/05 12:44:09;;;;;;;0.30;0.30;;;7.10;99.90;;;;;;5072560;28;20691;-71
2021/03/05 12:46:35;;;;;;;0.40;0.40;;;7.20;99.90;;;;;;5071433;28;20192;-72
2021/03/05 12:49:01;;;;;;;0.30;0.30;;;7.20;99.90;;;;;;5072826;28;20195;-73
2021/03/05 12:51:27;;;;;;;0.40;0.40;;;7.20;99.90;;;;;;5061907;28;20204;-71
2021/03/05 12:53:53;;;;;;;0.30;0.30;;;7.20;99.90;;;;;;5072696;28;20165;-70
2021/03/05 12:56:18;;;;;;;1.23;1.17;;;7.10;99.90;;;;;;5073040;28;20287;-71
2021/03/05 12:58:44;;;;;;;0.67;0.67;;;7.00;99.90;;;;;;5072716;28;20169;-70
2021/03/05 13:01:10;;;;;;;0.30;0.30;;;7.00;99.90;;;;;;5070816;28;20738;-73
2021/03/05 13:03:36;;;;;;;0.30;0.30;;;6.80;99.90;;;;;;5072481;28;20529;-71
2021/03/05 13:06:01;;;;;;;0.55;0.55;;;6.70;99.90;;;;;;5071759;28;20419;-72
2021/03/05 13:08:27;;;;;;;0.30;0.30;;;6.70;99.90;;;;;;5071272;28;20176;-71